Terminal Aerodrome Forecast
Issued by NWS

Home | Current Version | Previous Version | Graphics & Text | Print | Product List | Glossary On
Versions: 1 2 3 4 5 6 7 8 9 10 11 12 13 14 15 16 17 18 19 20 21 22 23 24 25 26
000
FTUS45 KGGW 242320
TAFOLF
TAF
KOLF 242320Z 2500/2524 33018G26KT P6SM -SHRA SCT030 OVC060
     FM250300 32015KT P6SM VCSH OVC030
     FM250600 30016KT P6SM BKN060
     FM250900 30012KT P6SM FEW200=

USA.gov is the U.S. government's official web portal to all federal, state and local government web resources and services.